createdAt,value
2023-03-26T00:03:55.875Z,34.8
2023-03-26T00:10:01.560Z,34.8
2023-03-26T00:16:07.458Z,34.9
2023-03-26T00:22:12.665Z,34.8
2023-03-26T00:28:17.867Z,34.9
2023-03-26T00:34:23.526Z,34.8
2023-03-26T00:40:29.276Z,34.9
2023-03-26T00:46:35.423Z,34.9
2023-03-26T00:52:40.455Z,34.9
2023-03-26T00:58:45.804Z,34.8
2023-03-26T01:04:51.433Z,34.9
2023-03-26T01:10:56.739Z,34.9
2023-03-26T01:17:02.887Z,34.8
2023-03-26T01:23:08.295Z,34.9
2023-03-26T01:29:13.599Z,34.9
2023-03-26T01:35:19.430Z,34.9
2023-03-26T01:41:25.015Z,34.8
2023-03-26T01:47:30.385Z,34.8
2023-03-26T01:53:35.737Z,34.8
2023-03-26T01:59:40.896Z,34.8
2023-03-26T02:05:46.693Z,34.8
2023-03-26T02:11:51.652Z,34.9
2023-03-26T02:17:57.434Z,34.8
2023-03-26T02:24:02.837Z,34.8
2023-03-26T02:30:08.312Z,34.8
2023-03-26T02:36:14.237Z,34.9
2023-03-26T02:42:19.702Z,34.9
2023-03-26T02:48:25.061Z,34.9
2023-03-26T02:54:30.811Z,34.9
2023-03-26T03:00:36.006Z,34.9
2023-03-26T03:06:41.585Z,34.9
2023-03-26T03:12:46.761Z,34.9
2023-03-26T03:18:51.924Z,34.9
2023-03-26T03:24:57.233Z,34.9
2023-03-26T03:31:02.775Z,35
2023-03-26T03:37:07.606Z,35
2023-03-26T03:43:12.514Z,35
2023-03-26T03:49:18.486Z,35.1
2023-03-26T03:55:24.095Z,35.1
2023-03-26T04:01:29.895Z,35.1
2023-03-26T04:07:35.426Z,35.2
2023-03-26T04:13:40.579Z,35.2
2023-03-26T04:19:45.977Z,35.2
2023-03-26T04:25:51.327Z,35.3
2023-03-26T04:31:56.688Z,35.3
2023-03-26T04:38:02.039Z,35.3
2023-03-26T04:44:06.873Z,35.3
2023-03-26T04:50:12.591Z,35.4
2023-03-26T04:56:18.152Z,35.4
2023-03-26T05:02:23.518Z,35.4
2023-03-26T05:08:28.748Z,35.4
2023-03-26T05:14:34.669Z,35.4
2023-03-26T05:20:40.040Z,35.5
2023-03-26T05:26:45.796Z,35.4
2023-03-26T05:32:51.708Z,35.4
2023-03-26T05:38:57.633Z,35.4
2023-03-26T05:45:03.017Z,35.4
2023-03-26T05:51:08.172Z,35.4
2023-03-26T05:57:13.566Z,35.4
2023-03-26T06:03:19.251Z,35.4
2023-03-26T06:09:24.678Z,35.4
2023-03-26T06:15:30.455Z,35.4
2023-03-26T06:21:36.008Z,35.3
2023-03-26T06:27:41.534Z,35.4
2023-03-26T06:33:46.930Z,35.4
2023-03-26T06:39:52.265Z,35.3
2023-03-26T06:45:58.065Z,35.4
2023-03-26T06:52:03.832Z,35.4
2023-03-26T06:58:09.081Z,35.5
2023-03-26T07:04:14.565Z,35.5
2023-03-26T07:10:19.937Z,35.6
2023-03-26T07:16:25.536Z,35.6
2023-03-26T07:22:31.070Z,35.8
2023-03-26T07:28:36.880Z,35.8
2023-03-26T07:34:42.220Z,35.9
2023-03-26T07:40:48.007Z,36
2023-03-26T07:46:53.571Z,36
2023-03-26T07:52:58.537Z,36.2
2023-03-26T07:59:03.894Z,36.3
2023-03-26T08:05:09.135Z,36.4
2023-03-26T08:11:14.834Z,36.4
2023-03-26T08:17:19.992Z,36.5
2023-03-26T08:23:25.425Z,36.4
2023-03-26T08:29:31.156Z,36.6
2023-03-26T08:35:36.753Z,36.5
2023-03-26T08:41:44.344Z,36.5
2023-03-26T08:47:49.937Z,36.6
2023-03-26T08:53:54.919Z,36.7
2023-03-26T09:00:03.119Z,36.8
2023-03-26T09:06:08.482Z,36.8
2023-03-26T09:12:14.452Z,36.7
2023-03-26T09:18:19.808Z,36.7
2023-03-26T09:24:25.457Z,36.9
2023-03-26T09:30:30.766Z,37
2023-03-26T09:36:36.329Z,37
2023-03-26T09:42:41.929Z,37.1
2023-03-26T09:48:47.480Z,37.2
2023-03-26T09:54:52.631Z,37.1
2023-03-26T10:00:58.886Z,37.3
2023-03-26T10:07:03.845Z,37.1
2023-03-26T10:13:17.987Z,37.4
2023-03-26T10:19:25.377Z,37.3
2023-03-26T10:25:30.608Z,37.3
2023-03-26T10:31:35.944Z,37.5
2023-03-26T10:37:41.520Z,37.4
2023-03-26T10:44:08.339Z,37.6
2023-03-26T10:56:19.494Z,37.6
2023-03-26T11:02:33.466Z,37.6
2023-03-26T11:08:38.919Z,37.6
2023-03-26T11:14:44.402Z,37.6
2023-03-26T11:20:49.829Z,37.8
2023-03-26T11:26:55.410Z,37.4
2023-03-26T11:33:01.155Z,37.4
2023-03-26T11:39:06.765Z,37.7
2023-03-26T11:45:12.537Z,37.5
2023-03-26T11:51:17.895Z,37.6
2023-03-26T11:57:23.509Z,37.7
2023-03-26T12:03:29.248Z,37.6
2023-03-26T12:09:34.833Z,37.6
2023-03-26T12:15:40.381Z,37.5
2023-03-26T12:21:45.950Z,37.6
2023-03-26T12:27:51.554Z,37.5
2023-03-26T12:33:59.043Z,37.8
2023-03-26T12:40:19.448Z,37.3
2023-03-26T12:48:05.973Z,37.4
2023-03-26T12:54:11.980Z,37.4
2023-03-26T13:00:17.320Z,37.6
2023-03-26T13:06:23.129Z,37.6
2023-03-26T13:12:28.698Z,37.8
2023-03-26T13:18:34.677Z,37.8
2023-03-26T13:24:40.874Z,37.7
2023-03-26T13:30:46.639Z,38
2023-03-26T13:36:52.496Z,37.7
2023-03-26T13:42:59.644Z,37.7
2023-03-26T13:49:04.754Z,38
2023-03-26T13:55:10.326Z,37.6
2023-03-26T14:01:16.354Z,37.9
2023-03-26T14:07:22.160Z,37.4
2023-03-26T14:13:27.104Z,38
2023-03-26T14:19:31.454Z,37.8
2023-03-26T14:25:36.993Z,38
2023-03-26T14:31:42.606Z,37.7
2023-03-26T14:37:47.560Z,37.7
2023-03-26T14:43:53.546Z,37.9
2023-03-26T14:49:59.301Z,37.9
2023-03-26T14:56:05.024Z,38
2023-03-26T15:02:10.971Z,37.8
2023-03-26T15:08:16.040Z,37.4
2023-03-26T15:14:21.388Z,37.6
2023-03-26T15:20:26.982Z,37.6
2023-03-26T15:26:32.115Z,37.7
2023-03-26T15:32:37.509Z,37.8
2023-03-26T15:38:42.577Z,37.6
2023-03-26T15:44:56.629Z,37.8
2023-03-26T15:51:02.262Z,37.8
2023-03-26T15:57:07.974Z,37.8
2023-03-26T16:03:13.886Z,37.7
2023-03-26T16:09:19.461Z,37.7
2023-03-26T16:15:24.916Z,37.4
2023-03-26T16:21:35.124Z,37.4
2023-03-26T16:27:40.769Z,37.5
2023-03-26T16:33:46.284Z,37.7
2023-03-26T16:39:52.276Z,37.7
2023-03-26T16:45:57.613Z,37.5
2023-03-26T16:52:02.971Z,37.4
2023-03-26T16:58:08.404Z,37.5
2023-03-26T17:04:14.548Z,37.3
2023-03-26T17:10:20.327Z,37.4
2023-03-26T17:16:25.966Z,37.2
2023-03-26T17:22:32.135Z,37.3
2023-03-26T17:28:37.852Z,37.3
2023-03-26T17:34:43.118Z,37.3
2023-03-26T17:40:48.035Z,37.1
2023-03-26T17:46:53.532Z,37.2
2023-03-26T17:52:59.375Z,37.1
2023-03-26T17:59:15.424Z,37.2
2023-03-26T18:05:21.206Z,37.2
2023-03-26T18:11:26.694Z,37.1
2023-03-26T18:17:32.698Z,37.1
2023-03-26T18:23:37.846Z,37
2023-03-26T18:29:43.500Z,37
2023-03-26T18:35:49.412Z,37
2023-03-26T18:41:55.161Z,37
2023-03-26T18:48:00.563Z,36.9
2023-03-26T18:54:05.967Z,36.9
2023-03-26T19:00:12.168Z,36.9
2023-03-26T19:06:17.878Z,36.9
2023-03-26T19:12:23.870Z,36.8
2023-03-26T19:18:29.813Z,36.8
2023-03-26T19:24:35.226Z,36.7
2023-03-26T19:30:41.004Z,36.7
2023-03-26T19:36:46.150Z,36.7
2023-03-26T19:42:51.920Z,36.6
2023-03-26T19:48:57.532Z,36.6
2023-03-26T19:55:04.072Z,36.6
2023-03-26T20:01:09.658Z,36.6
2023-03-26T20:07:15.030Z,36.6
2023-03-26T20:13:20.615Z,36.5
2023-03-26T20:19:26.580Z,36.5
2023-03-26T20:25:34.693Z,36.4
2023-03-26T20:31:40.419Z,36.3
2023-03-26T20:37:45.807Z,36.3
2023-03-26T20:43:51.531Z,36.2
2023-03-26T20:49:57.924Z,36.3
2023-03-26T20:56:03.595Z,36.1
2023-03-26T21:02:09.351Z,36.1
2023-03-26T21:08:15.105Z,36.1
2023-03-26T21:14:20.808Z,36.1
2023-03-26T21:20:26.271Z,36
2023-03-26T21:32:53.196Z,35.8
2023-03-26T21:38:58.325Z,35.8
2023-03-26T21:45:03.700Z,35.9
2023-03-26T21:51:09.011Z,35.7
2023-03-26T21:57:14.406Z,35.7
2023-03-26T22:03:20.391Z,35.8
2023-03-26T22:15:48.323Z,35.6
2023-03-26T22:21:54.335Z,35.6
2023-03-26T22:28:00.275Z,35.6
2023-03-26T22:34:05.828Z,35.6
2023-03-26T22:40:11.625Z,35.6
2023-03-26T22:46:17.034Z,35.6
2023-03-26T22:52:22.354Z,35.5
2023-03-26T22:58:28.146Z,35.5
2023-03-26T23:04:35.787Z,35.5
2023-03-26T23:10:40.963Z,35.5
2023-03-26T23:16:47.284Z,35.4
2023-03-26T23:22:52.357Z,35.5
2023-03-26T23:28:58.670Z,35.4
2023-03-26T23:35:04.648Z,35.4
2023-03-26T23:41:09.994Z,35.4
2023-03-26T23:47:15.173Z,35.3
2023-03-26T23:53:20.545Z,35.3
2023-03-26T23:59:25.917Z,35.3
